createdAt,value
2019-06-27T00:00:55.698Z,13.95
2019-06-27T00:02:05.712Z,13.85
2019-06-27T00:03:15.676Z,13.83
2019-06-27T00:04:25.638Z,13.93
2019-06-27T00:05:35.607Z,13.76
2019-06-27T00:06:45.576Z,13.83
2019-06-27T00:07:55.313Z,13.8
2019-06-27T00:09:05.298Z,13.79
2019-06-27T00:10:15.250Z,13.82
2019-06-27T00:11:25.258Z,13.75
2019-06-27T00:12:35.216Z,13.7
2019-06-27T00:13:44.934Z,13.71
2019-06-27T00:14:54.900Z,13.67
2019-06-27T00:16:04.864Z,13.78
2019-06-27T00:17:14.841Z,13.78
2019-06-27T00:18:24.294Z,13.79
2019-06-27T00:19:34.302Z,13.82
2019-06-27T00:20:44.283Z,13.83
2019-06-27T00:21:54.246Z,13.75
2019-06-27T00:23:04.210Z,13.76
2019-06-27T00:24:14.174Z,13.79
2019-06-27T00:25:24.130Z,13.73
2019-06-27T00:26:34.084Z,13.73
2019-06-27T00:27:44.038Z,13.89
2019-06-27T00:28:54.047Z,13.86
2019-06-27T00:30:04.115Z,13.78
2019-06-27T00:31:14.082Z,13.82
2019-06-27T00:32:24.063Z,13.85
2019-06-27T00:33:34.016Z,13.78
2019-06-27T00:34:44.061Z,13.85
2019-06-27T00:35:54.016Z,13.85
2019-06-27T00:37:04.005Z,13.94
2019-06-27T00:38:13.734Z,13.86
2019-06-27T00:39:23.687Z,13.87
2019-06-27T00:40:33.651Z,13.87
2019-06-27T00:41:43.614Z,13.86
2019-06-27T00:42:53.574Z,13.85
2019-06-27T00:44:03.530Z,13.86
2019-06-27T00:45:13.483Z,13.82
2019-06-27T00:46:23.444Z,13.82
2019-06-27T00:47:33.406Z,13.83
2019-06-27T00:48:43.366Z,13.85
2019-06-27T00:49:53.328Z,13.82
2019-06-27T00:51:03.283Z,13.82
2019-06-27T00:52:13.253Z,13.85
2019-06-27T00:53:22.959Z,13.86
2019-06-27T00:54:32.929Z,13.91
2019-06-27T00:55:42.895Z,13.86
2019-06-27T00:56:52.602Z,13.83
2019-06-27T00:58:18.100Z,13.83
2019-06-27T00:59:28.059Z,13.85
2019-06-27T01:00:38.026Z,13.85
2019-06-27T01:01:48.191Z,13.8
2019-06-27T01:02:58.154Z,13.8
2019-06-27T01:04:08.171Z,13.75
2019-06-27T01:05:17.619Z,13.75
2019-06-27T01:06:27.579Z,13.62
2019-06-27T01:07:37.551Z,13.7
2019-06-27T01:08:47.513Z,13.67
2019-06-27T01:10:00.969Z,13.64
2019-06-27T01:11:11.196Z,13.64
2019-06-27T01:12:21.153Z,13.62
2019-06-27T01:13:31.219Z,13.6
2019-06-27T01:14:41.171Z,13.52
2019-06-27T01:15:50.875Z,13.78
2019-06-27T01:17:00.831Z,13.58
2019-06-27T01:18:10.792Z,13.52
2019-06-27T01:19:20.824Z,13.5
2019-06-27T01:20:30.526Z,13.57
2019-06-27T01:21:40.482Z,13.52
2019-06-27T01:22:50.519Z,13.52
2019-06-27T01:24:00.476Z,13.49
2019-06-27T01:25:09.923Z,13.39
2019-06-27T01:26:19.932Z,13.46
2019-06-27T01:27:34.975Z,13.4
2019-06-27T01:28:44.686Z,13.42
2019-06-27T01:29:54.646Z,13.36
2019-06-27T01:31:04.607Z,13.37
2019-06-27T01:32:14.576Z,13.24
2019-06-27T01:33:24.379Z,13.3
2019-06-27T01:34:33.858Z,13.27
2019-06-27T01:35:43.670Z,13.31
2019-06-27T01:36:53.634Z,13.19
2019-06-27T01:38:03.591Z,13.31
2019-06-27T01:39:13.062Z,13.24
2019-06-27T01:40:23.027Z,13.27
2019-06-27T01:41:32.992Z,13.23
2019-06-27T01:42:42.953Z,13.19
2019-06-27T01:43:54.959Z,13.16
2019-06-27T01:45:04.676Z,13.2
2019-06-27T01:46:14.637Z,13.21
2019-06-27T01:47:24.337Z,13.2
2019-06-27T01:48:34.311Z,13.12
2019-06-27T01:49:44.265Z,13.13
2019-06-27T01:50:54.017Z,13.13
2019-06-27T01:52:03.990Z,13.06
2019-06-27T01:53:13.742Z,13.12
2019-06-27T01:54:23.719Z,13.11
2019-06-27T01:55:33.690Z,13.05
2019-06-27T01:56:43.741Z,13.09
2019-06-27T01:57:53.713Z,13.06
2019-06-27T01:59:03.678Z,13.05
2019-06-27T02:00:13.659Z,13.06
2019-06-27T02:01:23.642Z,12.99
2019-06-27T02:02:33.594Z,13.02
2019-06-27T02:03:43.562Z,13.03
2019-06-27T02:04:53.523Z,12.98
2019-06-27T02:06:03.636Z,12.99
2019-06-27T02:07:13.608Z,12.94
2019-06-27T02:08:23.672Z,12.99
2019-06-27T02:09:36.027Z,12.99
2019-06-27T02:10:45.984Z,12.91
2019-06-27T02:11:56.021Z,12.93
2019-06-27T02:13:06.062Z,13.01
2019-06-27T02:14:15.813Z,12.93
2019-06-27T02:15:27.138Z,12.87
2019-06-27T02:16:36.847Z,12.87
2019-06-27T02:17:46.571Z,12.9
2019-06-27T02:18:56.553Z,12.86
2019-06-27T02:20:06.513Z,12.91
2019-06-27T02:21:16.472Z,12.81
2019-06-27T02:22:26.433Z,12.88
2019-06-27T02:23:36.397Z,12.81
2019-06-27T02:24:46.355Z,12.78
2019-06-27T02:25:56.098Z,12.83
2019-06-27T02:27:06.052Z,12.81
2019-06-27T02:28:16.002Z,12.68
2019-06-27T02:29:25.957Z,12.68
2019-06-27T02:30:35.716Z,12.63
2019-06-27T02:31:45.683Z,12.69
2019-06-27T02:32:55.639Z,12.48
2019-06-27T02:34:11.316Z,12.48
2019-06-27T02:35:21.026Z,12.57
2019-06-27T02:36:30.990Z,12.51
2019-06-27T02:37:41.000Z,12.51
2019-06-27T02:38:50.991Z,12.48
2019-06-27T02:40:00.958Z,12.5
2019-06-27T02:41:10.926Z,12.48
2019-06-27T02:42:20.637Z,12.43
2019-06-27T02:43:30.707Z,12.44
2019-06-27T02:44:40.686Z,12.39
2019-06-27T02:45:50.652Z,12.33
2019-06-27T02:47:00.615Z,12.47
2019-06-27T02:48:10.605Z,12.35
2019-06-27T02:49:20.596Z,12.39
2019-06-27T02:50:30.736Z,12.37
2019-06-27T02:51:40.730Z,12.29
2019-06-27T02:52:50.696Z,12.33
2019-06-27T02:54:00.699Z,12.26
2019-06-27T02:55:10.660Z,12.26
2019-06-27T02:56:20.626Z,12.21
2019-06-27T02:57:30.612Z,12.25
2019-06-27T02:58:40.601Z,12.21
2019-06-27T02:59:50.577Z,12.17
2019-06-27T03:01:00.564Z,12.25
2019-06-27T03:02:10.612Z,12.2
2019-06-27T03:03:20.571Z,12.26
2019-06-27T03:04:30.535Z,12.21
2019-06-27T03:05:40.550Z,12.15
2019-06-27T03:06:50.317Z,12.12
2019-06-27T03:08:00.324Z,12.1
2019-06-27T03:09:10.316Z,11.96
2019-06-27T03:10:20.549Z,11.99
2019-06-27T03:11:30.531Z,12.02
2019-06-27T03:12:40.520Z,12.02
2019-06-27T03:13:50.520Z,12.02
2019-06-27T03:15:00.491Z,11.96
2019-06-27T03:16:10.468Z,11.99
2019-06-27T03:17:20.477Z,11.97
2019-06-27T03:18:30.449Z,12.02
2019-06-27T03:19:40.431Z,11.96
2019-06-27T03:20:50.413Z,12
2019-06-27T03:22:04.284Z,11.99
2019-06-27T03:23:15.145Z,11.96
2019-06-27T03:24:24.905Z,12
2019-06-27T03:25:34.867Z,11.95
2019-06-27T03:26:44.872Z,12
2019-06-27T03:27:54.857Z,11.99
2019-06-27T03:29:04.819Z,12
2019-06-27T03:30:14.907Z,12.03
2019-06-27T03:31:25.114Z,12.1
2019-06-27T03:32:35.173Z,12.02
2019-06-27T03:33:45.350Z,12.03
2019-06-27T03:34:55.402Z,12.11
2019-06-27T03:36:05.436Z,12.08
2019-06-27T03:37:15.487Z,12.18
2019-06-27T03:38:25.197Z,12.18
2019-06-27T03:39:34.645Z,12.21
2019-06-27T03:40:44.621Z,12.26
2019-06-27T03:41:54.662Z,12.28
2019-06-27T03:43:04.701Z,12.25
2019-06-27T03:44:14.680Z,12.35
2019-06-27T03:45:24.697Z,12.44
2019-06-27T03:46:34.680Z,12.4
2019-06-27T03:47:44.671Z,12.48
2019-06-27T03:48:54.640Z,12.5
2019-06-27T03:50:04.686Z,12.54
2019-06-27T03:51:14.678Z,12.53
2019-06-27T03:52:24.649Z,12.63
2019-06-27T03:53:34.662Z,12.7
2019-06-27T03:54:44.654Z,12.65
2019-06-27T03:55:54.632Z,12.68
2019-06-27T03:57:04.604Z,12.69
2019-06-27T03:58:14.585Z,12.63
2019-06-27T03:59:24.581Z,12.81
2019-06-27T04:00:34.362Z,12.8
2019-06-27T04:01:44.072Z,12.78
2019-06-27T04:02:54.032Z,12.86
2019-06-27T04:04:04.004Z,12.94
2019-06-27T04:05:13.731Z,12.99
2019-06-27T04:06:23.462Z,12.98
2019-06-27T04:07:33.439Z,13.01
2019-06-27T04:08:43.414Z,13.08
2019-06-27T04:09:53.394Z,13.12
2019-06-27T04:11:03.400Z,13.13
2019-06-27T04:12:13.366Z,13.12
2019-06-27T04:13:23.097Z,13.19
2019-06-27T04:14:32.813Z,13.23
2019-06-27T04:15:42.792Z,13.19
2019-06-27T04:16:54.374Z,13.28
2019-06-27T04:18:04.394Z,13.31
2019-06-27T04:19:14.431Z,13.16
2019-06-27T04:20:24.452Z,13.06
2019-06-27T04:21:34.452Z,12.95
2019-06-27T04:22:44.419Z,12.98
2019-06-27T04:23:54.396Z,12.98
2019-06-27T04:25:04.519Z,12.88
2019-06-27T04:26:14.485Z,12.87
2019-06-27T04:27:24.481Z,12.95
2019-06-27T04:28:34.448Z,12.99
2019-06-27T04:29:43.895Z,12.98
2019-06-27T04:30:53.883Z,12.95
2019-06-27T04:32:03.862Z,13.03
2019-06-27T04:33:13.883Z,13.11
2019-06-27T04:34:25.130Z,13.09
2019-06-27T04:35:35.107Z,13.09
2019-06-27T04:36:45.122Z,13.12
2019-06-27T04:37:55.102Z,13.19
2019-06-27T04:39:05.075Z,13.16
2019-06-27T04:40:15.051Z,13.19
2019-06-27T04:41:25.052Z,13.13
2019-06-27T04:42:35.046Z,13.17
2019-06-27T04:43:45.034Z,13.16
2019-06-27T04:44:55.025Z,13.16
2019-06-27T04:46:04.997Z,13.13
2019-06-27T04:47:14.981Z,13.12
2019-06-27T04:48:24.806Z,13.17
2019-06-27T04:49:34.632Z,13.21
2019-06-27T04:50:44.646Z,13.16
2019-06-27T04:51:54.620Z,13.2
2019-06-27T04:53:04.613Z,13.21
2019-06-27T04:54:14.598Z,13.17
2019-06-27T04:55:24.559Z,13.12
2019-06-27T04:56:34.615Z,13.17
2019-06-27T04:57:44.599Z,13.13
2019-06-27T04:58:54.312Z,13.21
2019-06-27T05:00:04.030Z,13.17
2019-06-27T05:01:13.999Z,13.17
2019-06-27T05:02:23.976Z,13.17
2019-06-27T05:03:38.112Z,13.13
2019-06-27T05:04:48.097Z,13.13
2019-06-27T05:05:58.057Z,13.13
2019-06-27T05:07:08.066Z,13.12
2019-06-27T05:08:19.622Z,13.12
2019-06-27T05:09:29.645Z,13.13
2019-06-27T05:10:39.357Z,13.17
2019-06-27T05:11:49.373Z,13.16
2019-06-27T05:12:59.406Z,13.16
2019-06-27T05:14:09.388Z,13.23
2019-06-27T05:15:19.364Z,13.31
2019-06-27T05:16:29.321Z,13.27
2019-06-27T05:17:39.321Z,13.26
2019-06-27T05:18:49.282Z,13.3
2019-06-27T05:20:02.876Z,13.27
2019-06-27T05:21:12.994Z,13.3
2019-06-27T05:22:23.004Z,13.4
2019-06-27T05:23:32.978Z,13.3
2019-06-27T05:24:43.074Z,13.37
2019-06-27T05:25:53.162Z,13.37
2019-06-27T05:27:03.123Z,13.37
2019-06-27T05:28:13.220Z,13.3
2019-06-27T05:29:23.183Z,13.52
2019-06-27T05:30:32.649Z,13.33
2019-06-27T05:31:42.622Z,13.47
2019-06-27T05:32:52.385Z,13.43
2019-06-27T05:34:02.401Z,13.46
2019-06-27T05:35:12.445Z,13.54
2019-06-27T05:36:22.388Z,13.4
2019-06-27T05:37:32.324Z,13.31
2019-06-27T05:38:42.269Z,13.17
2019-06-27T05:39:52.218Z,13.12
2019-06-27T05:41:02.219Z,13.23
2019-06-27T05:42:11.902Z,13.27
2019-06-27T05:43:21.833Z,13.28
2019-06-27T05:44:31.582Z,13.42
2019-06-27T05:45:41.269Z,13.31
2019-06-27T05:46:51.212Z,13.42
2019-06-27T05:48:01.147Z,13.43
2019-06-27T05:49:10.864Z,13.5
2019-06-27T05:50:20.542Z,13.43
2019-06-27T05:51:30.476Z,13.46
2019-06-27T05:52:40.434Z,13.4
2019-06-27T05:53:50.431Z,13.31
2019-06-27T05:55:00.234Z,13.45
2019-06-27T05:56:10.238Z,13.33
2019-06-27T05:57:20.185Z,13.31
2019-06-27T05:58:30.244Z,13.26
2019-06-27T05:59:40.266Z,13.26
2019-06-27T06:00:49.962Z,13.19
2019-06-27T06:01:59.916Z,13.27
2019-06-27T06:03:09.629Z,13.37
2019-06-27T06:04:19.086Z,13.37
2019-06-27T06:05:31.713Z,13.46
2019-06-27T06:06:41.737Z,13.3
2019-06-27T06:07:51.680Z,13.28
2019-06-27T06:09:01.613Z,13.21
2019-06-27T06:10:11.584Z,13.3
2019-06-27T06:11:21.568Z,13.27
2019-06-27T06:12:31.517Z,13.36
2019-06-27T06:13:41.466Z,13.26
2019-06-27T06:14:51.402Z,13.24
2019-06-27T06:16:03.625Z,13.26
2019-06-27T06:17:13.582Z,13.31
2019-06-27T06:18:23.516Z,13.42
2019-06-27T06:19:33.475Z,13.27
2019-06-27T06:20:43.411Z,13.43
2019-06-27T06:21:53.349Z,13.33
2019-06-27T06:23:03.328Z,13.37
2019-06-27T06:24:13.279Z,13.31
2019-06-27T06:25:23.250Z,13.21
2019-06-27T06:26:33.273Z,13.26
2019-06-27T06:27:43.204Z,13.24
2019-06-27T06:28:53.206Z,13.37
2019-06-27T06:30:03.189Z,13.4
2019-06-27T06:31:13.156Z,13.52
2019-06-27T06:32:22.595Z,13.5
2019-06-27T06:33:32.535Z,13.52
2019-06-27T06:34:42.489Z,13.54
2019-06-27T06:35:52.577Z,13.61
2019-06-27T06:37:02.661Z,13.62
2019-06-27T06:38:15.749Z,13.6
2019-06-27T06:39:25.908Z,13.64
2019-06-27T06:40:35.955Z,13.65
2019-06-27T06:41:45.887Z,13.65
2019-06-27T06:43:00.835Z,13.75
2019-06-27T06:44:10.839Z,13.8
2019-06-27T06:45:20.771Z,13.93
2019-06-27T06:46:30.725Z,13.7
2019-06-27T06:47:40.675Z,13.8
2019-06-27T06:48:50.647Z,13.8
2019-06-27T06:50:00.597Z,13.89
2019-06-27T06:51:10.530Z,13.87
2019-06-27T06:52:20.292Z,13.91
2019-06-27T06:53:29.984Z,13.8
2019-06-27T06:54:39.924Z,13.93
2019-06-27T06:55:49.889Z,13.87
2019-06-27T06:56:59.845Z,13.86
2019-06-27T06:58:09.839Z,13.83
2019-06-27T06:59:19.530Z,13.93
2019-06-27T07:00:29.251Z,13.89
2019-06-27T07:01:39.193Z,14.01
2019-06-27T07:02:53.170Z,14.08
2019-06-27T07:04:03.188Z,14.07
2019-06-27T07:05:13.155Z,14.19
2019-06-27T07:06:23.235Z,14.15
2019-06-27T07:07:33.178Z,14.15
2019-06-27T07:08:43.123Z,14.08
2019-06-27T07:09:53.072Z,13.93
2019-06-27T07:11:03.045Z,14.13
2019-06-27T07:12:12.803Z,14.15
2019-06-27T07:13:22.867Z,14.11
2019-06-27T07:14:32.804Z,14.22
2019-06-27T07:15:42.757Z,14.13
2019-06-27T07:16:52.717Z,14.08
2019-06-27T07:18:02.655Z,14.13
2019-06-27T07:19:12.600Z,14.05
2019-06-27T07:20:22.929Z,14.04
2019-06-27T07:21:32.861Z,14.19
2019-06-27T07:22:42.815Z,14.2
2019-06-27T07:23:52.789Z,14.28
2019-06-27T07:25:02.629Z,14.31
2019-06-27T07:26:12.656Z,14.4
2019-06-27T07:27:22.584Z,14.41
2019-06-27T07:28:32.530Z,14.43
2019-06-27T07:29:42.587Z,14.41
2019-06-27T07:30:52.524Z,14.34
2019-06-27T07:32:02.477Z,14.52
2019-06-27T07:33:15.094Z,14.56
2019-06-27T07:34:25.154Z,14.52
2019-06-27T07:35:35.171Z,14.66
2019-06-27T07:36:45.359Z,14.77
2019-06-27T07:37:55.307Z,14.74
2019-06-27T07:39:05.257Z,14.79
2019-06-27T07:40:15.281Z,14.74
2019-06-27T07:41:25.221Z,14.73
2019-06-27T07:42:35.168Z,14.86
2019-06-27T07:43:45.128Z,14.74
2019-06-27T07:44:55.086Z,14.87
2019-06-27T07:46:05.113Z,14.73
2019-06-27T07:47:31.819Z,14.96
2019-06-27T07:48:41.773Z,14.89
2019-06-27T07:49:51.459Z,14.97
2019-06-27T07:51:01.477Z,14.97
2019-06-27T07:52:11.828Z,14.85
2019-06-27T07:53:21.840Z,14.92
2019-06-27T07:54:31.874Z,14.85
2019-06-27T07:55:41.556Z,14.99
2019-06-27T07:56:51.498Z,15.04
2019-06-27T07:58:01.432Z,15.07
2019-06-27T07:59:11.371Z,15.19
2019-06-27T08:00:21.071Z,15.36
2019-06-27T08:01:39.835Z,15.44
2019-06-27T08:02:50.070Z,15.52
2019-06-27T08:03:59.816Z,15.52
2019-06-27T08:05:09.994Z,15.63
2019-06-27T08:06:19.995Z,15.69
2019-06-27T08:07:29.944Z,15.69
2019-06-27T08:08:39.878Z,15.5
2019-06-27T08:09:49.607Z,15.5
2019-06-27T08:10:59.564Z,15.59
2019-06-27T08:12:09.574Z,15.51
2019-06-27T08:13:19.291Z,15.48
2019-06-27T08:14:28.998Z,15.35
2019-06-27T08:15:38.938Z,15.36
2019-06-27T08:16:48.907Z,15.43
2019-06-27T08:17:58.870Z,15.6
2019-06-27T08:19:08.817Z,15.63
2019-06-27T08:20:18.560Z,15.59
2019-06-27T08:21:28.505Z,15.67
2019-06-27T08:22:38.449Z,15.62
2019-06-27T08:23:48.162Z,15.65
2019-06-27T08:24:58.113Z,15.66
2019-06-27T08:26:08.065Z,15.8
2019-06-27T08:27:18.042Z,15.84
2019-06-27T08:28:28.000Z,15.87
2019-06-27T08:29:37.933Z,16.02
2019-06-27T08:30:47.941Z,16.02
2019-06-27T08:31:57.880Z,16
2019-06-27T08:33:07.819Z,15.94
2019-06-27T08:34:17.758Z,15.85
2019-06-27T08:35:27.698Z,15.8
2019-06-27T08:36:41.384Z,15.76
2019-06-27T08:37:51.630Z,15.83
2019-06-27T08:39:01.594Z,15.88
2019-06-27T08:40:11.531Z,15.91
2019-06-27T08:41:21.491Z,16.05
2019-06-27T08:42:31.463Z,16.05
2019-06-27T08:43:41.405Z,16.17
2019-06-27T08:44:51.357Z,16.25
2019-06-27T08:46:01.369Z,16.18
2019-06-27T08:47:11.386Z,16.21
2019-06-27T08:48:21.087Z,16.34
2019-06-27T08:49:30.773Z,16.21
2019-06-27T08:50:40.476Z,16.25
2019-06-27T08:51:50.430Z,16.17
2019-06-27T08:53:03.787Z,16.29
2019-06-27T08:54:13.761Z,16.29
2019-06-27T08:55:23.699Z,16.31
2019-06-27T08:56:33.649Z,16.44
2019-06-27T08:57:43.590Z,16.47
2019-06-27T08:58:53.557Z,16.43
2019-06-27T09:00:03.549Z,16.54
2019-06-27T09:01:13.635Z,16.61
2019-06-27T09:02:23.579Z,16.54
2019-06-27T09:03:33.558Z,16.64
2019-06-27T09:04:43.555Z,16.59
2019-06-27T09:05:53.526Z,16.72
2019-06-27T09:07:03.476Z,16.83
2019-06-27T09:08:13.420Z,16.51
2019-06-27T09:09:23.145Z,16.61
2019-06-27T09:10:33.104Z,16.55
2019-06-27T09:11:43.248Z,16.57
2019-06-27T09:12:53.194Z,16.57
2019-06-27T09:14:03.198Z,16.62
2019-06-27T09:15:13.153Z,16.65
2019-06-27T09:16:23.093Z,16.73
2019-06-27T09:17:33.103Z,16.82
2019-06-27T09:18:43.089Z,16.83
2019-06-27T09:19:53.112Z,16.89
2019-06-27T09:21:03.070Z,16.95
2019-06-27T09:22:12.775Z,16.91
2019-06-27T09:23:22.749Z,16.86
2019-06-27T09:24:32.726Z,16.84
2019-06-27T09:25:42.696Z,16.84
2019-06-27T09:26:52.472Z,16.86
2019-06-27T09:28:02.418Z,16.83
2019-06-27T09:29:12.422Z,16.8
2019-06-27T09:30:21.599Z,16.92
2019-06-27T09:31:31.600Z,16.82
2019-06-27T09:32:41.543Z,16.82
2019-06-27T09:33:51.520Z,16.89
2019-06-27T09:35:01.528Z,16.84
2019-06-27T09:36:11.545Z,16.92
2019-06-27T09:37:21.497Z,17.01
2019-06-27T09:38:31.434Z,17.04
2019-06-27T09:39:41.669Z,17.16
2019-06-27T09:40:51.682Z,17.22
2019-06-27T09:42:01.635Z,17.41
2019-06-27T09:43:11.570Z,17.44
2019-06-27T09:44:21.027Z,17.52
2019-06-27T09:45:30.510Z,17.69
2019-06-27T09:46:40.447Z,17.75
2019-06-27T09:47:50.201Z,17.76
2019-06-27T09:49:00.190Z,17.86
2019-06-27T09:50:10.140Z,17.95
2019-06-27T09:51:20.129Z,18
2019-06-27T09:52:30.080Z,18.08
2019-06-27T09:53:40.021Z,18.09
2019-06-27T09:54:49.741Z,17.97
2019-06-27T09:55:59.758Z,17.86
2019-06-27T09:57:09.754Z,17.8
2019-06-27T09:58:19.695Z,17.86
2019-06-27T09:59:29.656Z,17.91
2019-06-27T10:00:39.342Z,17.91
2019-06-27T10:01:49.277Z,17.87
2019-06-27T10:02:59.224Z,17.82
2019-06-27T10:04:09.269Z,17.71
2019-06-27T10:05:18.981Z,17.65
2019-06-27T10:06:31.139Z,17.9
2019-06-27T10:07:41.104Z,17.79
2019-06-27T10:08:51.066Z,17.93
2019-06-27T10:10:01.008Z,17.93
2019-06-27T10:11:10.959Z,18.09
2019-06-27T10:12:20.899Z,18.13
2019-06-27T10:13:46.949Z,18.28
2019-06-27T10:14:56.907Z,18.39
2019-06-27T10:16:06.873Z,18.45
2019-06-27T10:17:16.818Z,18.46
2019-06-27T10:18:26.769Z,18.49
2019-06-27T10:19:36.518Z,18.49
2019-06-27T10:20:46.460Z,18.45
2019-06-27T10:21:56.402Z,18.52
2019-06-27T10:23:06.467Z,18.49
2019-06-27T10:24:16.434Z,18.55
2019-06-27T10:25:26.555Z,18.61
2019-06-27T10:26:36.664Z,18.51
2019-06-27T10:27:46.605Z,18.45
2019-06-27T10:28:56.638Z,18.6
2019-06-27T10:30:06.617Z,18.6
2019-06-27T10:31:16.576Z,18.76
2019-06-27T10:32:26.520Z,18.82
2019-06-27T10:33:36.461Z,18.89
2019-06-27T10:34:46.439Z,18.98
2019-06-27T10:35:56.385Z,19.2
2019-06-27T10:37:06.364Z,19.08
2019-06-27T10:38:16.341Z,19.16
2019-06-27T10:39:25.781Z,19.12
2019-06-27T10:40:35.768Z,19.08
2019-06-27T10:41:45.732Z,19.22
2019-06-27T10:42:55.693Z,19.11
2019-06-27T10:44:05.816Z,19.17
2019-06-27T10:45:15.634Z,19.2
2019-06-27T10:46:25.669Z,19.26
2019-06-27T10:47:35.692Z,19.23
2019-06-27T10:48:45.662Z,19.23
2019-06-27T10:49:55.646Z,19.39
2019-06-27T10:51:05.594Z,19.41
2019-06-27T10:52:15.645Z,19.42
2019-06-27T10:53:25.583Z,19.57
2019-06-27T10:54:35.531Z,19.6
2019-06-27T10:55:45.469Z,19.71
2019-06-27T10:56:55.430Z,19.82
2019-06-27T10:58:05.574Z,19.89
2019-06-27T10:59:15.519Z,19.99
2019-06-27T11:00:25.272Z,20.08
2019-06-27T11:01:35.223Z,20.22
2019-06-27T11:02:45.163Z,20.27
2019-06-27T11:03:55.146Z,20.29
2019-06-27T11:05:05.094Z,20.46
2019-06-27T11:06:15.034Z,20.63
2019-06-27T11:07:24.988Z,20.64
2019-06-27T11:08:34.956Z,20.27
2019-06-27T11:09:44.953Z,20.27
2019-06-27T11:10:57.780Z,20.24
2019-06-27T11:12:07.729Z,19.78
2019-06-27T11:13:17.837Z,19.78
2019-06-27T11:14:27.787Z,19.82
2019-06-27T11:15:37.513Z,19.94
2019-06-27T11:16:47.468Z,20.04
2019-06-27T11:17:57.439Z,20.07
2019-06-27T11:19:07.432Z,20.15
2019-06-27T11:20:20.050Z,20.14
2019-06-27T11:21:30.034Z,19.93
2019-06-27T11:22:39.974Z,19.84
2019-06-27T11:23:49.967Z,19.92
2019-06-27T11:24:59.917Z,20.08
2019-06-27T11:26:12.003Z,20.07
2019-06-27T11:27:22.018Z,20.07
2019-06-27T11:28:35.025Z,20.18
2019-06-27T11:29:45.018Z,20.19
2019-06-27T11:30:55.006Z,20.37
2019-06-27T11:32:05.004Z,20.56
2019-06-27T11:33:28.205Z,20.64
2019-06-27T11:34:41.241Z,20.8
2019-06-27T11:35:51.255Z,21.14
2019-06-27T11:37:01.231Z,21.47
2019-06-27T11:38:11.292Z,21.89
2019-06-27T11:39:23.207Z,22.4
2019-06-27T11:40:32.910Z,22.92
2019-06-27T11:41:42.853Z,23.42
2019-06-27T11:42:52.843Z,24.01
2019-06-27T11:44:02.796Z,24.37
2019-06-27T11:45:12.765Z,24.99
2019-06-27T11:46:22.726Z,25.48
2019-06-27T11:47:34.497Z,26.07
2019-06-27T11:48:44.611Z,26.7
2019-06-27T11:49:54.585Z,27.22
2019-06-27T11:51:04.535Z,27.6
2019-06-27T11:52:14.054Z,28.08
2019-06-27T11:53:23.761Z,28.49
2019-06-27T11:54:33.469Z,29.06
2019-06-27T11:55:43.607Z,29.49
2019-06-27T11:56:53.640Z,29.92
2019-06-27T11:58:03.649Z,29.84
2019-06-27T11:59:13.656Z,29.57
2019-06-27T12:00:22.886Z,29.98
2019-06-27T12:01:32.938Z,30.38
2019-06-27T12:02:43.100Z,30.21
2019-06-27T12:03:54.799Z,30.17
2019-06-27T12:05:04.767Z,30.21
2019-06-27T12:06:14.728Z,30.03
2019-06-27T12:07:24.680Z,28.77
2019-06-27T12:08:34.654Z,28.82
2019-06-27T12:09:44.642Z,29.24
2019-06-27T12:10:54.604Z,29.58
2019-06-27T12:12:04.656Z,30.03
2019-06-27T12:13:14.827Z,30.16
2019-06-27T12:14:24.824Z,30.46
2019-06-27T12:15:34.528Z,29.21
2019-06-27T12:16:44.492Z,29.1
2019-06-27T12:17:54.541Z,28.3
2019-06-27T12:19:04.576Z,27.52
2019-06-27T12:20:14.546Z,27.61
2019-06-27T12:21:24.590Z,26.89
2019-06-27T12:22:34.340Z,26.71
2019-06-27T12:23:44.386Z,26.45
2019-06-27T12:24:54.355Z,26.24
2019-06-27T12:26:04.319Z,26.01
2019-06-27T12:27:14.307Z,25.66
2019-06-27T12:28:24.331Z,26.01
2019-06-27T12:29:34.063Z,25.98
2019-06-27T12:30:44.084Z,25.8
2019-06-27T12:31:56.434Z,26.15
2019-06-27T12:33:06.609Z,25.91
2019-06-27T12:34:16.625Z,25.39
2019-06-27T12:35:26.131Z,25.34
2019-06-27T12:36:36.334Z,25.52
2019-06-27T12:37:46.317Z,25.61
2019-06-27T12:38:56.281Z,25.77
2019-06-27T12:40:06.038Z,25.89
2019-06-27T12:41:15.758Z,25.44
2019-06-27T12:42:37.176Z,25.88
2019-06-27T12:43:47.150Z,26.34
2019-06-27T12:44:57.104Z,26.68
2019-06-27T12:46:07.066Z,26.33
2019-06-27T12:47:17.047Z,26.06
2019-06-27T12:48:26.758Z,25.43
2019-06-27T12:50:05.369Z,25.37
2019-06-27T12:51:15.333Z,25.76
2019-06-27T12:52:25.094Z,26.15
2019-06-27T12:53:35.060Z,26.68
2019-06-27T12:54:45.058Z,26.66
2019-06-27T12:55:55.195Z,26.36
2019-06-27T12:57:05.170Z,26.18
2019-06-27T12:58:15.221Z,26.04
2019-06-27T12:59:25.178Z,26.01
2019-06-27T13:00:34.710Z,25.67
2019-06-27T13:01:44.739Z,25.43
2019-06-27T13:02:54.714Z,25.99
2019-06-27T13:04:04.721Z,25.73
2019-06-27T13:05:30.484Z,26.15
2019-06-27T13:06:40.290Z,26.1
2019-06-27T13:07:50.291Z,26.16
2019-06-27T13:09:00.252Z,26.42
2019-06-27T13:10:10.236Z,26.91
2019-06-27T13:11:20.244Z,27.11
2019-06-27T13:12:30.219Z,27.19
2019-06-27T13:13:40.182Z,26.63
2019-06-27T13:14:50.230Z,27.1
2019-06-27T13:16:00.049Z,27.81
2019-06-27T13:17:09.753Z,28.23
2019-06-27T13:18:19.746Z,27.66
2019-06-27T13:19:29.449Z,27.25
2019-06-27T13:20:47.285Z,27.75
2019-06-27T13:22:06.207Z,28.43
2019-06-27T13:23:16.262Z,28.75
2019-06-27T13:24:25.800Z,28.83
2019-06-27T13:25:39.044Z,29.37
2019-06-27T13:26:49.008Z,29.55
2019-06-27T13:27:59.015Z,29.34
2019-06-27T13:29:08.823Z,29.62
2019-06-27T13:30:18.813Z,29.24
2019-06-27T13:31:28.597Z,28.93
2019-06-27T13:32:38.586Z,29.22
2019-06-27T13:33:48.547Z,28.65
2019-06-27T13:34:58.567Z,28.72
2019-06-27T13:36:08.535Z,29.27
2019-06-27T13:37:18.738Z,29.43
2019-06-27T13:38:28.708Z,29.24
2019-06-27T13:39:38.704Z,28.86
2019-06-27T13:40:48.439Z,29.42
2019-06-27T13:41:58.411Z,29.53
2019-06-27T13:43:08.372Z,29.28
2019-06-27T13:44:18.350Z,28.89
2019-06-27T13:45:31.396Z,28.41
2019-06-27T13:46:41.497Z,28.68
2019-06-27T13:47:51.497Z,29.16
2019-06-27T13:49:01.632Z,29.58
2019-06-27T13:50:11.338Z,29.62
2019-06-27T13:51:21.310Z,30.23
2019-06-27T13:52:31.291Z,30.74
2019-06-27T13:53:41.289Z,31.23
2019-06-27T13:54:50.996Z,31.79
2019-06-27T13:56:00.970Z,31.73
2019-06-27T13:57:10.939Z,31.95
2019-06-27T13:58:20.912Z,31.82
2019-06-27T13:59:30.705Z,32.23
2019-06-27T14:00:40.448Z,32.73
2019-06-27T14:01:50.162Z,33.23
2019-06-27T14:03:00.136Z,33.35
2019-06-27T14:04:10.103Z,33.79
2019-06-27T14:05:20.089Z,34.25
2019-06-27T14:06:30.072Z,34.37
2019-06-27T14:07:39.958Z,34.65
2019-06-27T14:08:50.052Z,35.07
2019-06-27T14:10:02.455Z,35.16
2019-06-27T14:11:12.415Z,34.59
2019-06-27T14:12:22.371Z,33.75
2019-06-27T14:13:32.368Z,33.73
2019-06-27T14:14:55.371Z,33.26
2019-06-27T14:16:10.817Z,33.15
2019-06-27T14:17:20.834Z,32.07
2019-06-27T14:18:30.823Z,32.26
2019-06-27T14:19:40.819Z,32.81
2019-06-27T14:20:50.791Z,33.16
2019-06-27T14:22:03.765Z,33.58
2019-06-27T14:23:13.731Z,32.95
2019-06-27T14:24:23.699Z,32.44
2019-06-27T14:25:33.409Z,32.31
2019-06-27T14:26:43.130Z,32.27
2019-06-27T14:27:53.126Z,31.1
2019-06-27T14:29:03.194Z,31.42
2019-06-27T14:30:13.166Z,31.35
2019-06-27T14:31:23.145Z,31.47
2019-06-27T14:32:33.104Z,30.65
2019-06-27T14:33:43.063Z,30.77
2019-06-27T14:34:53.200Z,30.76
2019-06-27T14:36:20.103Z,30.51
2019-06-27T14:37:30.123Z,30.46
2019-06-27T14:38:40.095Z,31.05
2019-06-27T14:39:50.056Z,30.62
2019-06-27T14:41:03.889Z,31.22
2019-06-27T14:42:13.856Z,31.37
2019-06-27T14:43:23.333Z,31.5
2019-06-27T14:44:33.291Z,31.89
2019-06-27T14:45:43.011Z,31.97
2019-06-27T14:46:53.025Z,32.61
2019-06-27T14:48:02.996Z,32.98
2019-06-27T14:49:12.486Z,32.67
2019-06-27T14:50:22.460Z,32.9
2019-06-27T14:51:32.421Z,33.12
2019-06-27T14:52:42.397Z,32.22
2019-06-27T14:53:52.365Z,31.37
2019-06-27T14:55:02.343Z,30.76
2019-06-27T14:56:12.330Z,31.48
2019-06-27T14:57:22.043Z,31.77
2019-06-27T14:58:35.882Z,31.62
2019-06-27T14:59:45.862Z,32.16
2019-06-27T15:00:55.826Z,30.98
2019-06-27T15:02:10.063Z,31.13
2019-06-27T15:03:20.032Z,30.48
2019-06-27T15:04:29.748Z,29.52
2019-06-27T15:05:39.717Z,30.02
2019-06-27T15:06:49.692Z,30.67
2019-06-27T15:07:59.654Z,30.86
2019-06-27T15:09:09.613Z,30.77